sensor_id;sensor_type;location;lat;lon;timestamp;pressure;altitude;pressure_sealevel;temperature;humidity
50349;BME280;36250;48.740;22.174;2023-04-19T00:00:43;100335.69;;;12.70;46.55
50349;BME280;36250;48.740;22.174;2023-04-19T00:03:09;100344.16;;;12.69;46.57
50349;BME280;36250;48.740;22.174;2023-04-19T00:05:35;100334.31;;;12.68;46.55
50349;BME280;36250;48.740;22.174;2023-04-19T00:08:03;100336.16;;;12.62;46.49
50349;BME280;36250;48.740;22.174;2023-04-19T00:10:28;100331.16;;;12.49;46.78
50349;BME280;36250;48.740;22.174;2023-04-19T00:12:53;100333.28;;;12.42;47.56
50349;BME280;36250;48.740;22.174;2023-04-19T00:15:19;100323.38;;;12.36;47.73
50349;BME280;36250;48.740;22.174;2023-04-19T00:17:44;100326.38;;;12.34;48.31
50349;BME280;36250;48.740;22.174;2023-04-19T00:20:10;100322.19;;;12.27;48.43
50349;BME280;36250;48.740;22.174;2023-04-19T00:22:38;100321.81;;;12.18;48.28
50349;BME280;36250;48.740;22.174;2023-04-19T00:25:04;100314.63;;;12.07;48.51
50349;BME280;36250;48.740;22.174;2023-04-19T00:27:30;100316.69;;;11.95;49.09
50349;BME280;36250;48.740;22.174;2023-04-19T00:29:56;100307.13;;;11.93;49.14
50349;BME280;36250;48.740;22.174;2023-04-19T00:32:24;100314.97;;;11.89;49.18
50349;BME280;36250;48.740;22.174;2023-04-19T00:34:50;100310.00;;;11.81;49.06
50349;BME280;36250;48.740;22.174;2023-04-19T00:37:15;100303.94;;;11.79;49.44
50349;BME280;36250;48.740;22.174;2023-04-19T00:39:41;100306.63;;;11.74;49.27
50349;BME280;36250;48.740;22.174;2023-04-19T00:42:06;100300.59;;;11.72;49.94
50349;BME280;36250;48.740;22.174;2023-04-19T00:44:31;100294.63;;;11.75;49.57
50349;BME280;36250;48.740;22.174;2023-04-19T00:46:58;100298.00;;;11.82;50.11
50349;BME280;36250;48.740;22.174;2023-04-19T00:49:24;100294.25;;;11.88;49.05
50349;BME280;36250;48.740;22.174;2023-04-19T00:51:50;100293.72;;;11.91;49.19
50349;BME280;36250;48.740;22.174;2023-04-19T00:54:16;100289.97;;;11.97;48.90
50349;BME280;36250;48.740;22.174;2023-04-19T00:56:43;100286.47;;;12.02;49.01
50349;BME280;36250;48.740;22.174;2023-04-19T00:59:08;100285.69;;;12.06;49.25
50349;BME280;36250;48.740;22.174;2023-04-19T01:01:35;100277.00;;;12.09;49.30
50349;BME280;36250;48.740;22.174;2023-04-19T01:04:02;100284.41;;;12.14;49.14
50349;BME280;36250;48.740;22.174;2023-04-19T01:06:28;100278.16;;;12.18;48.76
50349;BME280;36250;48.740;22.174;2023-04-19T01:08:55;100272.72;;;12.18;48.26
50349;BME280;36250;48.740;22.174;2023-04-19T01:11:22;100275.19;;;12.20;48.19
50349;BME280;36250;48.740;22.174;2023-04-19T01:13:48;100269.75;;;12.20;48.90
50349;BME280;36250;48.740;22.174;2023-04-19T01:16:13;100265.91;;;12.21;47.93
50349;BME280;36250;48.740;22.174;2023-04-19T01:18:39;100264.84;;;12.22;48.28
50349;BME280;36250;48.740;22.174;2023-04-19T01:21:06;100270.03;;;12.23;48.70
50349;BME280;36250;48.740;22.174;2023-04-19T01:23:32;100259.06;;;12.18;49.62
50349;BME280;36250;48.740;22.174;2023-04-19T01:25:58;100266.13;;;12.14;49.37
50349;BME280;36250;48.740;22.174;2023-04-19T01:28:25;100261.97;;;12.07;50.62
50349;BME280;36250;48.740;22.174;2023-04-19T01:30:50;100259.81;;;11.82;54.62
50349;BME280;36250;48.740;22.174;2023-04-19T01:33:17;100257.53;;;11.52;54.64
50349;BME280;36250;48.740;22.174;2023-04-19T01:35:43;100258.50;;;11.41;54.75
50349;BME280;36250;48.740;22.174;2023-04-19T01:38:08;100251.31;;;11.35;54.58
50349;BME280;36250;48.740;22.174;2023-04-19T01:40:33;100256.28;;;11.38;54.25
50349;BME280;36250;48.740;22.174;2023-04-19T01:42:59;100254.94;;;11.41;54.71
50349;BME280;36250;48.740;22.174;2023-04-19T01:45:24;100248.09;;;11.38;53.90
50349;BME280;36250;48.740;22.174;2023-04-19T01:47:50;100250.50;;;11.35;54.45
50349;BME280;36250;48.740;22.174;2023-04-19T01:50:16;100257.19;;;11.22;55.25
50349;BME280;36250;48.740;22.174;2023-04-19T01:52:41;100247.97;;;11.06;56.12
50349;BME280;36250;48.740;22.174;2023-04-19T01:55:07;100246.63;;;11.09;55.13
50349;BME280;36250;48.740;22.174;2023-04-19T01:57:32;100242.31;;;11.13;55.86
50349;BME280;36250;48.740;22.174;2023-04-19T01:59:58;100248.31;;;11.10;56.31
50349;BME280;36250;48.740;22.174;2023-04-19T02:02:23;100235.41;;;11.05;56.57
50349;BME280;36250;48.740;22.174;2023-04-19T02:04:48;100232.69;;;11.05;56.12
50349;BME280;36250;48.740;22.174;2023-04-19T02:07:14;100237.06;;;11.06;56.07
50349;BME280;36250;48.740;22.174;2023-04-19T02:09:39;100231.63;;;11.06;55.67
50349;BME280;36250;48.740;22.174;2023-04-19T02:12:05;100233.78;;;11.04;55.41
50349;BME280;36250;48.740;22.174;2023-04-19T02:14:30;100225.13;;;11.07;55.47
50349;BME280;36250;48.740;22.174;2023-04-19T02:16:56;100223.84;;;11.15;55.97
50349;BME280;36250;48.740;22.174;2023-04-19T02:19:22;100225.81;;;11.19;55.84
50349;BME280;36250;48.740;22.174;2023-04-19T02:21:47;100221.16;;;11.20;56.43
50349;BME280;36250;48.740;22.174;2023-04-19T02:24:12;100213.81;;;11.20;56.38
50349;BME280;36250;48.740;22.174;2023-04-19T02:26:38;100217.09;;;11.22;56.44
50349;BME280;36250;48.740;22.174;2023-04-19T02:29:04;100214.59;;;11.16;56.35
50349;BME280;36250;48.740;22.174;2023-04-19T02:31:29;100213.13;;;11.08;55.82
50349;BME280;36250;48.740;22.174;2023-04-19T02:33:55;100208.50;;;11.09;57.15
50349;BME280;36250;48.740;22.174;2023-04-19T02:36:20;100209.34;;;11.09;57.05
50349;BME280;36250;48.740;22.174;2023-04-19T02:38:45;100209.91;;;11.11;56.86
50349;BME280;36250;48.740;22.174;2023-04-19T02:41:11;100200.13;;;11.15;55.77
50349;BME280;36250;48.740;22.174;2023-04-19T02:43:36;100205.66;;;11.20;55.34
50349;BME280;36250;48.740;22.174;2023-04-19T02:46:01;100189.63;;;11.24;54.22
50349;BME280;36250;48.740;22.174;2023-04-19T02:48:27;100186.13;;;11.29;53.79
50349;BME280;36250;48.740;22.174;2023-04-19T02:50:52;100191.56;;;11.29;53.12
50349;BME280;36250;48.740;22.174;2023-04-19T02:53:18;100187.19;;;11.28;52.98
50349;BME280;36250;48.740;22.174;2023-04-19T02:55:43;100176.88;;;11.30;52.84
50349;BME280;36250;48.740;22.174;2023-04-19T02:58:08;100179.63;;;11.35;52.53
50349;BME280;36250;48.740;22.174;2023-04-19T03:00:34;100177.56;;;11.42;52.69
50349;BME280;36250;48.740;22.174;2023-04-19T03:02:59;100175.69;;;11.47;52.31
50349;BME280;36250;48.740;22.174;2023-04-19T03:05:27;100174.91;;;11.52;52.69
50349;BME280;36250;48.740;22.174;2023-04-19T03:07:53;100175.47;;;11.49;54.98
50349;BME280;36250;48.740;22.174;2023-04-19T03:10:18;100175.84;;;11.36;56.84
50349;BME280;36250;48.740;22.174;2023-04-19T03:12:44;100169.16;;;11.21;57.23
50349;BME280;36250;48.740;22.174;2023-04-19T03:15:09;100164.09;;;11.08;57.30
50349;BME280;36250;48.740;22.174;2023-04-19T03:17:35;100169.25;;;11.05;57.96
50349;BME280;36250;48.740;22.174;2023-04-19T03:20:01;100168.41;;;11.04;57.70
50349;BME280;36250;48.740;22.174;2023-04-19T03:22:26;100172.19;;;11.03;58.21
50349;BME280;36250;48.740;22.174;2023-04-19T03:24:52;100162.91;;;10.99;57.63
50349;BME280;36250;48.740;22.174;2023-04-19T03:27:17;100168.09;;;11.01;57.78
50349;BME280;36250;48.740;22.174;2023-04-19T03:29:42;100164.78;;;10.99;58.31
50349;BME280;36250;48.740;22.174;2023-04-19T03:32:08;100162.84;;;10.94;58.56
50349;BME280;36250;48.740;22.174;2023-04-19T03:34:33;100160.13;;;10.94;59.26
50349;BME280;36250;48.740;22.174;2023-04-19T03:36:58;100163.97;;;10.98;59.58
50349;BME280;36250;48.740;22.174;2023-04-19T03:39:24;100157.72;;;10.98;59.61
50349;BME280;36250;48.740;22.174;2023-04-19T03:41:49;100164.78;;;10.99;59.67
50349;BME280;36250;48.740;22.174;2023-04-19T03:44:15;100165.88;;;10.98;59.79
50349;BME280;36250;48.740;22.174;2023-04-19T03:46:41;100156.34;;;11.00;60.57
50349;BME280;36250;48.740;22.174;2023-04-19T03:49:06;100153.69;;;11.05;60.30
50349;BME280;36250;48.740;22.174;2023-04-19T03:51:31;100146.69;;;11.09;59.84
50349;BME280;36250;48.740;22.174;2023-04-19T03:53:57;100154.34;;;11.12;59.87
50349;BME280;36250;48.740;22.174;2023-04-19T03:56:22;100154.16;;;11.19;59.21
50349;BME280;36250;48.740;22.174;2023-04-19T03:58:51;100155.22;;;11.18;59.11
50349;BME280;36250;48.740;22.174;2023-04-19T04:01:20;100155.22;;;11.18;58.40
50349;BME280;36250;48.740;22.174;2023-04-19T04:03:45;100150.97;;;11.27;58.43
50349;BME280;36250;48.740;22.174;2023-04-19T04:06:11;100151.59;;;11.34;58.97
50349;BME280;36250;48.740;22.174;2023-04-19T04:08:36;100143.19;;;11.41;57.20
50349;BME280;36250;48.740;22.174;2023-04-19T04:11:02;100143.00;;;11.47;58.57
50349;BME280;36250;48.740;22.174;2023-04-19T04:13:27;100141.41;;;11.51;58.46
50349;BME280;36250;48.740;22.174;2023-04-19T04:15:53;100147.47;;;11.58;58.43
50349;BME280;36250;48.740;22.174;2023-04-19T04:18:18;100141.53;;;11.66;59.08
50349;BME280;36250;48.740;22.174;2023-04-19T04:20:44;100147.94;;;11.77;59.17
50349;BME280;36250;48.740;22.174;2023-04-19T04:23:09;100143.66;;;11.86;58.83
50349;BME280;36250;48.740;22.174;2023-04-19T04:25:35;100144.56;;;11.97;59.25
50349;BME280;36250;48.740;22.174;2023-04-19T04:28:02;100145.44;;;12.02;58.57
50349;BME280;36250;48.740;22.174;2023-04-19T04:30:28;100146.59;;;12.11;58.88
50349;BME280;36250;48.740;22.174;2023-04-19T04:32:53;100141.72;;;12.18;59.09
50349;BME280;36250;48.740;22.174;2023-04-19T04:35:22;100151.00;;;12.17;60.07
50349;BME280;36250;48.740;22.174;2023-04-19T04:37:47;100154.53;;;11.81;62.11
50349;BME280;36250;48.740;22.174;2023-04-19T04:40:13;100153.81;;;11.64;62.62
50349;BME280;36250;48.740;22.174;2023-04-19T04:42:38;100160.88;;;11.65;62.21
50349;BME280;36250;48.740;22.174;2023-04-19T04:45:05;100156.22;;;11.60;62.22
50349;BME280;36250;48.740;22.174;2023-04-19T04:47:31;100154.88;;;11.63;61.83
50349;BME280;36250;48.740;22.174;2023-04-19T04:49:57;100161.03;;;11.75;61.71
50349;BME280;36250;48.740;22.174;2023-04-19T04:52:22;100149.94;;;11.86;61.60
50349;BME280;36250;48.740;22.174;2023-04-19T04:54:47;100153.56;;;11.97;61.07
50349;BME280;36250;48.740;22.174;2023-04-19T04:57:13;100149.75;;;11.93;61.69
50349;BME280;36250;48.740;22.174;2023-04-19T04:59:38;100151.91;;;11.96;62.00
50349;BME280;36250;48.740;22.174;2023-04-19T05:02:03;100142.47;;;12.09;61.60
50349;BME280;36250;48.740;22.174;2023-04-19T05:04:29;100148.00;;;12.19;60.69
50349;BME280;36250;48.740;22.174;2023-04-19T05:06:54;100154.38;;;12.29;60.56
50349;BME280;36250;48.740;22.174;2023-04-19T05:09:20;100157.22;;;12.08;62.95
50349;BME280;36250;48.740;22.174;2023-04-19T05:11:45;100155.66;;;11.85;64.62
50349;BME280;36250;48.740;22.174;2023-04-19T05:14:10;100154.28;;;11.82;65.34
50349;BME280;36250;48.740;22.174;2023-04-19T05:16:36;100159.72;;;11.82;65.69
50349;BME280;36250;48.740;22.174;2023-04-19T05:19:02;100157.09;;;11.93;64.78
50349;BME280;36250;48.740;22.174;2023-04-19T05:21:27;100151.38;;;11.94;64.39
50349;BME280;36250;48.740;22.174;2023-04-19T05:23:52;100150.53;;;11.94;64.87
50349;BME280;36250;48.740;22.174;2023-04-19T05:26:18;100157.38;;;11.96;64.85
50349;BME280;36250;48.740;22.174;2023-04-19T05:28:44;100150.63;;;12.04;64.87
50349;BME280;36250;48.740;22.174;2023-04-19T05:31:10;100150.97;;;12.12;64.45
50349;BME280;36250;48.740;22.174;2023-04-19T05:33:36;100155.66;;;12.17;64.20
50349;BME280;36250;48.740;22.174;2023-04-19T05:36:02;100156.47;;;12.17;64.85
50349;BME280;36250;48.740;22.174;2023-04-19T05:38:27;100164.69;;;12.22;64.79
50349;BME280;36250;48.740;22.174;2023-04-19T05:40:52;100163.13;;;12.31;65.45
50349;BME280;36250;48.740;22.174;2023-04-19T05:43:17;100168.66;;;12.41;65.29
50349;BME280;36250;48.740;22.174;2023-04-19T05:45:43;100163.81;;;12.53;65.06
50349;BME280;36250;48.740;22.174;2023-04-19T05:48:08;100166.59;;;12.64;64.47
50349;BME280;36250;48.740;22.174;2023-04-19T05:50:34;100156.25;;;12.71;64.37
50349;BME280;36250;48.740;22.174;2023-04-19T05:53:01;100162.31;;;12.78;64.54
50349;BME280;36250;48.740;22.174;2023-04-19T05:55:26;100156.91;;;12.88;64.69
50349;BME280;36250;48.740;22.174;2023-04-19T05:57:52;100158.56;;;12.99;64.44
50349;BME280;36250;48.740;22.174;2023-04-19T06:00:17;100160.31;;;13.10;64.66
50349;BME280;36250;48.740;22.174;2023-04-19T06:02:43;100170.72;;;13.23;64.60
50349;BME280;36250;48.740;22.174;2023-04-19T06:05:08;100165.03;;;13.35;64.22
50349;BME280;36250;48.740;22.174;2023-04-19T06:07:34;100168.06;;;13.48;64.47
50349;BME280;36250;48.740;22.174;2023-04-19T06:09:59;100165.63;;;13.57;62.73
50349;BME280;36250;48.740;22.174;2023-04-19T06:12:25;100158.00;;;13.69;61.90
50349;BME280;36250;48.740;22.174;2023-04-19T06:14:51;100165.38;;;13.73;60.37
50349;BME280;36250;48.740;22.174;2023-04-19T06:17:16;100157.19;;;13.89;60.29
50349;BME280;36250;48.740;22.174;2023-04-19T06:19:41;100153.88;;;13.97;59.43
50349;BME280;36250;48.740;22.174;2023-04-19T06:22:07;100155.00;;;14.01;59.06
50349;BME280;36250;48.740;22.174;2023-04-19T06:24:32;100150.63;;;14.10;58.69
50349;BME280;36250;48.740;22.174;2023-04-19T06:26:58;100149.25;;;14.17;58.69
50349;BME280;36250;48.740;22.174;2023-04-19T06:29:23;100148.97;;;14.34;58.29
50349;BME280;36250;48.740;22.174;2023-04-19T06:31:49;100140.44;;;14.51;57.76
50349;BME280;36250;48.740;22.174;2023-04-19T06:34:15;100142.91;;;14.62;57.71
50349;BME280;36250;48.740;22.174;2023-04-19T06:36:40;100143.41;;;14.74;57.88
50349;BME280;36250;48.740;22.174;2023-04-19T06:39:06;100149.66;;;14.90;57.34
50349;BME280;36250;48.740;22.174;2023-04-19T06:41:31;100138.34;;;15.01;56.52
50349;BME280;36250;48.740;22.174;2023-04-19T06:43:56;100143.53;;;15.13;55.88
50349;BME280;36250;48.740;22.174;2023-04-19T06:46:22;100141.56;;;15.19;54.70
50349;BME280;36250;48.740;22.174;2023-04-19T06:48:47;100138.00;;;15.23;54.89
50349;BME280;36250;48.740;22.174;2023-04-19T06:51:13;100138.00;;;15.23;53.87
50349;BME280;36250;48.740;22.174;2023-04-19T06:53:38;100142.38;;;15.24;53.23
50349;BME280;36250;48.740;22.174;2023-04-19T06:56:04;100140.47;;;15.25;53.31
50349;BME280;36250;48.740;22.174;2023-04-19T06:58:30;100135.00;;;15.20;53.63
50349;BME280;36250;48.740;22.174;2023-04-19T07:00:58;100142.94;;;15.16;53.24
50349;BME280;36250;48.740;22.174;2023-04-19T07:03:25;100141.03;;;15.17;52.61
50349;BME280;36250;48.740;22.174;2023-04-19T07:05:50;100141.31;;;15.20;52.65
50349;BME280;36250;48.740;22.174;2023-04-19T07:08:20;100134.78;;;15.11;52.26
50349;BME280;36250;48.740;22.174;2023-04-19T07:10:45;100139.47;;;15.00;52.15
50349;BME280;36250;48.740;22.174;2023-04-19T07:13:11;100142.25;;;14.95;53.42
50349;BME280;36250;48.740;22.174;2023-04-19T07:15:36;100155.44;;;14.88;53.60
50349;BME280;36250;48.740;22.174;2023-04-19T07:18:02;100141.19;;;14.86;53.36
50349;BME280;36250;48.740;22.174;2023-04-19T07:20:27;100149.97;;;14.83;52.87
50349;BME280;36250;48.740;22.174;2023-04-19T07:22:53;100140.91;;;14.88;52.75
50349;BME280;36250;48.740;22.174;2023-04-19T07:25:18;100142.81;;;14.87;52.72
50349;BME280;36250;48.740;22.174;2023-04-19T07:27:44;100142.25;;;14.95;52.97
50349;BME280;36250;48.740;22.174;2023-04-19T07:30:10;100147.16;;;15.03;52.42
50349;BME280;36250;48.740;22.174;2023-04-19T07:32:35;100143.28;;;15.09;51.75
50349;BME280;36250;48.740;22.174;2023-04-19T07:35:00;100150.19;;;14.92;51.96
50349;BME280;36250;48.740;22.174;2023-04-19T07:37:26;100148.59;;;14.86;51.38
50349;BME280;36250;48.740;22.174;2023-04-19T07:39:52;100138.72;;;14.80;51.57
50349;BME280;36250;48.740;22.174;2023-04-19T07:42:17;100138.16;;;14.88;51.57
50349;BME280;36250;48.740;22.174;2023-04-19T07:44:43;100138.97;;;14.88;51.74
50349;BME280;36250;48.740;22.174;2023-04-19T07:47:08;100143.06;;;14.96;50.47
50349;BME280;36250;48.740;22.174;2023-04-19T07:49:33;100144.94;;;15.05;50.39
50349;BME280;36250;48.740;22.174;2023-04-19T07:52:06;100152.53;;;15.19;50.95
50349;BME280;36250;48.740;22.174;2023-04-19T07:54:31;100142.94;;;15.21;49.77
50349;BME280;36250;48.740;22.174;2023-04-19T07:56:57;100147.03;;;15.24;50.84
50349;BME280;36250;48.740;22.174;2023-04-19T07:59:23;100141.81;;;15.27;50.23
50349;BME280;36250;48.740;22.174;2023-04-19T08:01:48;100142.59;;;15.38;50.20
50349;BME280;36250;48.740;22.174;2023-04-19T08:04:14;100127.25;;;15.32;49.12
50349;BME280;36250;48.740;22.174;2023-04-19T08:06:41;100146.16;;;15.33;49.27
50349;BME280;36250;48.740;22.174;2023-04-19T08:09:06;100142.25;;;15.54;49.50
50349;BME280;36250;48.740;22.174;2023-04-19T08:11:32;100142.25;;;15.88;50.37
50349;BME280;36250;48.740;22.174;2023-04-19T08:13:57;100139.88;;;16.10;49.94
50349;BME280;36250;48.740;22.174;2023-04-19T08:16:22;100141.31;;;16.31;48.64
50349;BME280;36250;48.740;22.174;2023-04-19T08:18:48;100118.75;;;16.11;47.08
50349;BME280;36250;48.740;22.174;2023-04-19T08:21:16;100126.72;;;16.07;49.24
50349;BME280;36250;48.740;22.174;2023-04-19T08:23:41;100126.13;;;16.15;48.70
50349;BME280;36250;48.740;22.174;2023-04-19T08:26:06;100121.47;;;16.39;47.99
50349;BME280;36250;48.740;22.174;2023-04-19T08:28:32;100127.25;;;16.67;46.50
50349;BME280;36250;48.740;22.174;2023-04-19T08:30:58;100122.03;;;16.65;44.27
50349;BME280;36250;48.740;22.174;2023-04-19T08:33:23;100125.50;;;16.52;45.32
50349;BME280;36250;48.740;22.174;2023-04-19T08:35:49;100120.84;;;16.48;46.32
50349;BME280;36250;48.740;22.174;2023-04-19T08:38:14;100117.59;;;16.46;47.55
50349;BME280;36250;48.740;22.174;2023-04-19T08:40:45;100113.63;;;16.28;47.14
50349;BME280;36250;48.740;22.174;2023-04-19T08:43:10;100133.38;;;16.30;47.02
50349;BME280;36250;48.740;22.174;2023-04-19T08:45:36;100113.97;;;16.21;48.49
50349;BME280;36250;48.740;22.174;2023-04-19T08:48:03;100115.97;;;16.39;48.13
50349;BME280;36250;48.740;22.174;2023-04-19T08:50:30;100116.03;;;16.34;48.12
50349;BME280;36250;48.740;22.174;2023-04-19T08:52:58;100117.59;;;15.83;49.02
50349;BME280;36250;48.740;22.174;2023-04-19T08:55:24;100111.19;;;15.59;49.49
50349;BME280;36250;48.740;22.174;2023-04-19T08:57:50;100114.53;;;15.51;49.73
50349;BME280;36250;48.740;22.174;2023-04-19T09:00:16;100108.00;;;15.47;48.39
50349;BME280;36250;48.740;22.174;2023-04-19T09:02:48;100107.66;;;15.53;48.98
50349;BME280;36250;48.740;22.174;2023-04-19T09:05:14;100097.94;;;15.71;47.70
50349;BME280;36250;48.740;22.174;2023-04-19T09:07:40;100109.41;;;15.78;47.45
50349;BME280;36250;48.740;22.174;2023-04-19T09:10:07;100112.63;;;15.85;48.28
50349;BME280;36250;48.740;22.174;2023-04-19T09:12:34;100106.69;;;15.73;47.47
50349;BME280;36250;48.740;22.174;2023-04-19T09:15:00;100107.22;;;15.75;48.83
50349;BME280;36250;48.740;22.174;2023-04-19T09:17:29;100102.19;;;15.87;48.84
50349;BME280;36250;48.740;22.174;2023-04-19T09:19:55;100098.31;;;15.93;48.55
50349;BME280;36250;48.740;22.174;2023-04-19T09:22:21;100099.59;;;15.72;48.49
50349;BME280;36250;48.740;22.174;2023-04-19T09:24:47;100100.13;;;15.74;49.13
50349;BME280;36250;48.740;22.174;2023-04-19T09:27:14;100101.88;;;15.94;48.28
50349;BME280;36250;48.740;22.174;2023-04-19T09:29:40;100099.31;;;16.02;46.55
50349;BME280;36250;48.740;22.174;2023-04-19T09:32:06;100093.97;;;16.16;47.43
50349;BME280;36250;48.740;22.174;2023-04-19T09:34:31;100099.97;;;16.47;46.94
50349;BME280;36250;48.740;22.174;2023-04-19T09:36:57;100096.00;;;16.63;46.92
50349;BME280;36250;48.740;22.174;2023-04-19T09:39:32;100093.25;;;16.63;46.28
50349;BME280;36250;48.740;22.174;2023-04-19T09:41:57;100085.41;;;16.75;46.16
50349;BME280;36250;48.740;22.174;2023-04-19T09:44:23;100092.16;;;16.82;45.84
50349;BME280;36250;48.740;22.174;2023-04-19T09:46:48;100095.44;;;16.84;46.46
50349;BME280;36250;48.740;22.174;2023-04-19T09:49:21;100092.84;;;16.93;45.42
50349;BME280;36250;48.740;22.174;2023-04-19T09:51:49;100095.38;;;16.66;43.94
50349;BME280;36250;48.740;22.174;2023-04-19T09:54:16;100098.84;;;16.53;44.58
50349;BME280;36250;48.740;22.174;2023-04-19T09:56:43;100091.72;;;16.47;44.63
50349;BME280;36250;48.740;22.174;2023-04-19T09:59:09;100095.53;;;16.51;45.80
50349;BME280;36250;48.740;22.174;2023-04-19T10:01:38;100099.25;;;16.65;44.71
50349;BME280;36250;48.740;22.174;2023-04-19T10:04:05;100086.97;;;16.99;43.53
50349;BME280;36250;48.740;22.174;2023-04-19T10:06:31;100086.81;;;17.33;42.04
50349;BME280;36250;48.740;22.174;2023-04-19T10:09:00;100087.91;;;17.32;41.73
50349;BME280;36250;48.740;22.174;2023-04-19T10:11:34;100085.00;;;17.42;41.29
50349;BME280;36250;48.740;22.174;2023-04-19T10:14:07;100084.56;;;17.35;42.91
50349;BME280;36250;48.740;22.174;2023-04-19T10:16:34;100084.63;;;17.49;42.04
50349;BME280;36250;48.740;22.174;2023-04-19T10:19:01;100086.44;;;17.58;40.13
50349;BME280;36250;48.740;22.174;2023-04-19T10:21:27;100084.94;;;17.47;42.06
50349;BME280;36250;48.740;22.174;2023-04-19T10:23:54;100070.66;;;17.45;41.75
50349;BME280;36250;48.740;22.174;2023-04-19T10:26:20;100077.50;;;17.48;41.69
50349;BME280;36250;48.740;22.174;2023-04-19T10:28:46;100080.41;;;17.56;42.09
50349;BME280;36250;48.740;22.174;2023-04-19T10:31:12;100073.88;;;17.52;39.60
50349;BME280;36250;48.740;22.174;2023-04-19T10:33:37;100071.13;;;17.52;39.62
50349;BME280;36250;48.740;22.174;2023-04-19T10:36:07;100065.16;;;17.64;41.57
50349;BME280;36250;48.740;22.174;2023-04-19T10:38:41;100066.91;;;17.92;40.42
50349;BME280;36250;48.740;22.174;2023-04-19T10:41:14;100063.59;;;17.90;40.36
50349;BME280;36250;48.740;22.174;2023-04-19T10:43:43;100058.66;;;17.92;41.02
50349;BME280;36250;48.740;22.174;2023-04-19T10:48:57;100068.53;;;17.24;39.10
50349;BME280;36250;48.740;22.174;2023-04-19T10:51:36;100065.78;;;17.24;40.69
50349;BME280;36250;48.740;22.174;2023-04-19T10:54:26;100067.63;;;17.28;40.46
50349;BME280;36250;48.740;22.174;2023-04-19T10:59:38;100062.78;;;17.20;40.31
50349;BME280;36250;48.740;22.174;2023-04-19T11:02:27;100064.72;;;17.01;40.86
50349;BME280;36250;48.740;22.174;2023-04-19T11:07:18;100065.34;;;16.93;40.81
50349;BME280;36250;48.740;22.174;2023-04-19T11:09:46;100059.13;;;17.06;40.25
50349;BME280;36250;48.740;22.174;2023-04-19T11:12:14;100063.53;;;17.26;40.12
50349;BME280;36250;48.740;22.174;2023-04-19T11:14:42;100059.47;;;17.60;40.54
50349;BME280;36250;48.740;22.174;2023-04-19T11:17:22;100057.47;;;17.80;39.01
50349;BME280;36250;48.740;22.174;2023-04-19T11:20:01;100051.81;;;17.90;37.74
50349;BME280;36250;48.740;22.174;2023-04-19T11:22:41;100047.41;;;18.02;37.31
50349;BME280;36250;48.740;22.174;2023-04-19T11:25:20;100042.19;;;18.33;37.56
50349;BME280;36250;48.740;22.174;2023-04-19T11:27:50;100047.22;;;18.58;37.44
50349;BME280;36250;48.740;22.174;2023-04-19T11:30:18;100044.13;;;18.73;36.62
50349;BME280;36250;48.740;22.174;2023-04-19T11:35:12;100045.06;;;18.55;38.06
50349;BME280;36250;48.740;22.174;2023-04-19T11:37:38;100041.16;;;18.43;39.14
50349;BME280;36250;48.740;22.174;2023-04-19T11:40:07;100047.06;;;18.22;41.51
50349;BME280;36250;48.740;22.174;2023-04-19T11:42:33;100046.88;;;17.87;42.50
50349;BME280;36250;48.740;22.174;2023-04-19T11:44:59;100048.47;;;17.74;43.37
50349;BME280;36250;48.740;22.174;2023-04-19T11:47:27;100047.16;;;17.71;39.54
50349;BME280;36250;48.740;22.174;2023-04-19T11:49:55;100039.63;;;17.77;41.31
50349;BME280;36250;48.740;22.174;2023-04-19T11:52:25;100042.56;;;17.81;41.51
50349;BME280;36250;48.740;22.174;2023-04-19T11:54:51;100047.16;;;17.71;42.79
50349;BME280;36250;48.740;22.174;2023-04-19T11:57:31;100035.81;;;17.73;44.02
50349;BME280;36250;48.740;22.174;2023-04-19T12:00:29;100041.13;;;17.69;42.50
50349;BME280;36250;48.740;22.174;2023-04-19T12:02:54;100033.16;;;17.68;43.34
50349;BME280;36250;48.740;22.174;2023-04-19T12:05:20;100028.56;;;17.63;42.30
50349;BME280;36250;48.740;22.174;2023-04-19T12:08:05;100045.91;;;17.45;42.27
50349;BME280;36250;48.740;22.174;2023-04-19T12:10:34;100043.00;;;17.37;42.42
50349;BME280;36250;48.740;22.174;2023-04-19T12:13:00;100040.41;;;17.45;40.64
50349;BME280;36250;48.740;22.174;2023-04-19T12:15:45;100032.44;;;17.62;40.16
50349;BME280;36250;48.740;22.174;2023-04-19T12:18:11;100027.38;;;17.83;38.51
50349;BME280;36250;48.740;22.174;2023-04-19T12:20:42;100035.59;;;18.02;39.16
50349;BME280;36250;48.740;22.174;2023-04-19T12:23:08;100033.59;;;18.21;37.57
50349;BME280;36250;48.740;22.174;2023-04-19T12:25:35;100030.22;;;18.37;37.22
50349;BME280;36250;48.740;22.174;2023-04-19T12:28:02;100029.03;;;18.57;37.30
50349;BME280;36250;48.740;22.174;2023-04-19T12:30:28;100029.56;;;18.73;37.05
50349;BME280;36250;48.740;22.174;2023-04-19T12:32:53;100030.63;;;18.85;34.41
50349;BME280;36250;48.740;22.174;2023-04-19T12:35:20;100028.41;;;18.74;35.08
50349;BME280;36250;48.740;22.174;2023-04-19T12:37:46;100028.00;;;18.80;33.83
50349;BME280;36250;48.740;22.174;2023-04-19T12:40:12;100035.03;;;18.86;36.03
50349;BME280;36250;48.740;22.174;2023-04-19T12:42:38;100037.59;;;18.69;36.29
50349;BME280;36250;48.740;22.174;2023-04-19T12:45:03;100037.59;;;18.28;38.56
50349;BME280;36250;48.740;22.174;2023-04-19T12:47:29;100035.28;;;17.90;41.93